Elena Of London — 2COR3 — position and weather

sailwx.info

Track history (hours):
 
Tides and Currents Weather Stations Pressure Air Temp Water Temp Dewpoint Dewpoint Depression Visibility Wind Speed Wind Dir Waves Ship Positions

Elena Of London

Last reported at 2014-Nov-15 10:33 UTC. Time now 2014-Nov-21 20:35 UTC.
Position N 35°59' W 005°32'.

Length 44 m; draft 5.2 m.

Type: Sailing vessel. MMSI: 235074534.

Date/timePositionNaut miles runAvg speedWind from/ knotsBaromVisibWave heightAir tempDewpointWater temp
2014-Nov-15 10:33N 35°59' W 005°32'7 7.1
2014-Nov-15 09:33N 36°00' W 005°24'8 8.0
2014-Nov-15 08:33N 36°03' W 005°15'296 7.1
2014-Nov-13 14:33N 37°25' E 000°40'111 5.8
2014-Nov-12 19:29N 38°41' E 002°22'8 9.1
2014-Nov-12 18:33N 38°50' E 002°24'9 9.2
2014-Nov-12 17:34N 38°59' E 002°26'9 9.2
2014-Nov-12 16:33N 39°08' E 002°28'9 9.5
2014-Nov-12 15:33N 39°17' E 002°29'9 9.3
2014-Nov-12 14:33N 39°27' E 002°32'8 8.0
2014-Nov-12 13:33N 39°33' E 002°38'1 0.9
2014-Nov-12 12:32N 39°34' E 002°38'0 0.0
2014-Nov-12 11:33N 39°34' E 002°38'0 0.0
2014-Nov-12 10:33N 39°34' E 002°38'0 0.0
2014-Nov-12 09:33N 39°34' E 002°38'0 0.0
2014-Nov-12 08:33N 39°34' E 002°38'0 0.0
2014-Nov-12 07:33N 39°34' E 002°38'0 0.0
2014-Nov-12 06:33N 39°34' E 002°38'0 0.0
2014-Nov-12 05:33N 39°34' E 002°38'0 0.0
2014-Nov-12 04:33N 39°34' E 002°38'0 0.0
2014-Nov-12 03:33N 39°34' E 002°38'0 0.0
2014-Nov-12 02:33N 39°34' E 002°38'0 0.0
2014-Nov-12 01:33N 39°34' E 002°38'0 0.0
2014-Nov-12 00:33N 39°34' E 002°38'0 0.0
2014-Nov-11 23:33N 39°34' E 002°38'0 0.0
2014-Nov-11 22:33N 39°34' E 002°38'0 0.0
2014-Nov-11 21:33N 39°34' E 002°38'0 0.0
2014-Nov-11 20:33N 39°34' E 002°38'0 0.0
2014-Nov-11 19:33N 39°34' E 002°38'0 0.0
2014-Nov-11 18:33N 39°34' E 002°38'0 0.0
2014-Nov-11 17:33N 39°34' E 002°38'0 0.0
2014-Nov-11 16:33N 39°34' E 002°38'0 0.0
2014-Nov-11 15:33N 39°34' E 002°38'0 0.0
2014-Nov-11 14:33N 39°34' E 002°38'0 0.0
2014-Nov-11 13:33N 39°34' E 002°38'0 0.0
2014-Nov-11 12:33N 39°34' E 002°38'0 0.0
2014-Nov-11 11:33N 39°34' E 002°38'0 0.0
2014-Nov-11 10:33N 39°34' E 002°38'0 0.0
2014-Nov-11 09:33N 39°34' E 002°38'3 3.5
2014-Nov-11 08:33N 39°31' E 002°34'1 1.1
2014-Nov-11 07:32N 39°31' E 002°33'0 0.0
2014-Nov-11 06:32N 39°31' E 002°33'0 0.0
2014-Nov-11 05:32N 39°31' E 002°33'0 0.0
2014-Nov-11 03:31N 39°31' E 002°33'0 0.0
2014-Nov-11 02:33N 39°31' E 002°33'1 0.8
2014-Nov-11 01:33N 39°31' E 002°34'7 6.6
2014-Nov-11 00:34N 39°28' E 002°27'11 9.9
2014-Nov-10 23:29N 39°35' E 002°17'10 9.5
2014-Nov-10 22:28N 39°43' E 002°24'9 9.8
2014-Nov-10 21:33N 39°49' E 002°33'10 9.6
2014-Nov-10 20:34N 39°56' E 002°41'10 9.8
2014-Nov-10 19:33N 40°03' E 002°51'10 9.8
2014-Nov-10 18:33N 40°10' E 002°60'10 9.8
2014-Nov-10 17:33N 40°17' E 003°09'10 9.9
2014-Nov-10 16:33N 40°24' E 003°18'5310.3
2014-Nov-10 11:23N 41°04' E 004°03'1110.4
2014-Nov-10 10:17N 41°13' E 004°12'17 9.1
2014-Nov-10 08:28N 41°25' E 004°27'1010.3
2014-Nov-10 07:29N 41°32' E 004°37'19 9.8
2014-Nov-10 05:33N 41°47' E 004°53'6210.3
2014-Nov-09 23:33N 42°31' E 005°51'1010.3
2014-Nov-09 22:33N 42°39' E 006°01'1110.6
2014-Nov-09 21:34N 42°46' E 006°11'1110.9
2014-Nov-09 20:33N 42°53' E 006°23'1111.4
2014-Nov-09 19:33N 43°01' E 006°33'1111.3
2014-Nov-09 18:33N 43°10' E 006°44'1111.2
2014-Nov-09 17:33N 43°19' E 006°53'1111.4
2014-Nov-09 16:33N 43°28' E 007°03'8 8.0
2014-Nov-09 15:33N 43°35' E 007°08'0 0.1
2014-Nov-09 14:33N 43°35' E 007°08'0 0.0
2014-Nov-09 13:33N 43°35' E 007°08'3 3.4
2014-Nov-09 12:33N 43°36' E 007°12'1211.4
2014-Nov-09 11:32N 43°41' E 007°27'  
Track history (hours):
 
Tides and Currents Weather Stations Pressure Air Temp Water Temp Dewpoint Dewpoint Depression Visibility Wind Speed Wind Dir Waves Ship Positions

Elena Of London

Last reported at 2014-Nov-15 10:33 UTC. Time now 2014-Nov-21 20:35 UTC.
Position N 35°59' W 005°32'.

Length 44 m; draft 5.2 m.

Type: Sailing vessel. MMSI: 235074534.

Date/timePositionNaut miles runAvg speedWind from/ knotsBaromVisibWave heightAir tempDewpointWater temp
2014-Nov-15 10:33N 35°59' W 005°32'7 7.1
2014-Nov-15 09:33N 36°00' W 005°24'8 8.0
2014-Nov-15 08:33N 36°03' W 005°15'296 7.1
2014-Nov-13 14:33N 37°25' E 000°40'111 5.8
2014-Nov-12 19:29N 38°41' E 002°22'8 9.1
2014-Nov-12 18:33N 38°50' E 002°24'9 9.2
2014-Nov-12 17:34N 38°59' E 002°26'9 9.2
2014-Nov-12 16:33N 39°08' E 002°28'9 9.5
2014-Nov-12 15:33N 39°17' E 002°29'9 9.3
2014-Nov-12 14:33N 39°27' E 002°32'8 8.0
2014-Nov-12 13:33N 39°33' E 002°38'1 0.9
2014-Nov-12 12:32N 39°34' E 002°38'0 0.0
2014-Nov-12 11:33N 39°34' E 002°38'0 0.0
2014-Nov-12 10:33N 39°34' E 002°38'0 0.0
2014-Nov-12 09:33N 39°34' E 002°38'0 0.0
2014-Nov-12 08:33N 39°34' E 002°38'0 0.0
2014-Nov-12 07:33N 39°34' E 002°38'0 0.0
2014-Nov-12 06:33N 39°34' E 002°38'0 0.0
2014-Nov-12 05:33N 39°34' E 002°38'0 0.0
2014-Nov-12 04:33N 39°34' E 002°38'0 0.0
2014-Nov-12 03:33N 39°34' E 002°38'0 0.0
2014-Nov-12 02:33N 39°34' E 002°38'0 0.0
2014-Nov-12 01:33N 39°34' E 002°38'0 0.0
2014-Nov-12 00:33N 39°34' E 002°38'0 0.0
2014-Nov-11 23:33N 39°34' E 002°38'0 0.0
2014-Nov-11 22:33N 39°34' E 002°38'0 0.0
2014-Nov-11 21:33N 39°34' E 002°38'0 0.0
2014-Nov-11 20:33N 39°34' E 002°38'0 0.0
2014-Nov-11 19:33N 39°34' E 002°38'0 0.0
2014-Nov-11 18:33N 39°34' E 002°38'0 0.0
2014-Nov-11 17:33N 39°34' E 002°38'0 0.0
2014-Nov-11 16:33N 39°34' E 002°38'0 0.0
2014-Nov-11 15:33N 39°34' E 002°38'0 0.0
2014-Nov-11 14:33N 39°34' E 002°38'0 0.0
2014-Nov-11 13:33N 39°34' E 002°38'0 0.0
2014-Nov-11 12:33N 39°34' E 002°38'0 0.0
2014-Nov-11 11:33N 39°34' E 002°38'0 0.0
2014-Nov-11 10:33N 39°34' E 002°38'0 0.0
2014-Nov-11 09:33N 39°34' E 002°38'3 3.5
2014-Nov-11 08:33N 39°31' E 002°34'1 1.1
2014-Nov-11 07:32N 39°31' E 002°33'0 0.0
2014-Nov-11 06:32N 39°31' E 002°33'0 0.0
2014-Nov-11 05:32N 39°31' E 002°33'0 0.0
2014-Nov-11 03:31N 39°31' E 002°33'0 0.0
2014-Nov-11 02:33N 39°31' E 002°33'1 0.8
2014-Nov-11 01:33N 39°31' E 002°34'7 6.6
2014-Nov-11 00:34N 39°28' E 002°27'11 9.9
2014-Nov-10 23:29N 39°35' E 002°17'10 9.5
2014-Nov-10 22:28N 39°43' E 002°24'9 9.8
2014-Nov-10 21:33N 39°49' E 002°33'10 9.6
2014-Nov-10 20:34N 39°56' E 002°41'10 9.8
2014-Nov-10 19:33N 40°03' E 002°51'10 9.8
2014-Nov-10 18:33N 40°10' E 002°60'10 9.8
2014-Nov-10 17:33N 40°17' E 003°09'10 9.9
2014-Nov-10 16:33N 40°24' E 003°18'5310.3
2014-Nov-10 11:23N 41°04' E 004°03'1110.4
2014-Nov-10 10:17N 41°13' E 004°12'17 9.1
2014-Nov-10 08:28N 41°25' E 004°27'1010.3
2014-Nov-10 07:29N 41°32' E 004°37'19 9.8
2014-Nov-10 05:33N 41°47' E 004°53'6210.3
2014-Nov-09 23:33N 42°31' E 005°51'1010.3
2014-Nov-09 22:33N 42°39' E 006°01'1110.6
2014-Nov-09 21:34N 42°46' E 006°11'1110.9
2014-Nov-09 20:33N 42°53' E 006°23'1111.4
2014-Nov-09 19:33N 43°01' E 006°33'1111.3
2014-Nov-09 18:33N 43°10' E 006°44'1111.2
2014-Nov-09 17:33N 43°19' E 006°53'1111.4
2014-Nov-09 16:33N 43°28' E 007°03'8 8.0
2014-Nov-09 15:33N 43°35' E 007°08'0 0.1
2014-Nov-09 14:33N 43°35' E 007°08'0 0.0
2014-Nov-09 13:33N 43°35' E 007°08'3 3.4
2014-Nov-09 12:33N 43°36' E 007°12'1211.4
2014-Nov-09 11:32N 43°41' E 007°27'  

Dump ship's entire track history